createdAt,value
2022-12-23T00:01:30.225Z,165.32
2022-12-23T00:03:59.497Z,173.68
2022-12-23T00:06:26.975Z,176.13
2022-12-23T00:08:58.738Z,179.80
2022-12-23T00:11:27.132Z,168.52
2022-12-23T00:14:20.132Z,175.25
2022-12-23T00:16:48.795Z,170.38
2022-12-23T00:19:15.618Z,172.35
2022-12-23T00:21:42.425Z,166.07
2022-12-23T00:24:09.179Z,163.73
2022-12-23T00:26:35.941Z,166.48
2022-12-23T00:29:02.758Z,167.10
2022-12-23T00:31:29.594Z,167.32
2022-12-23T00:33:56.359Z,172.20
2022-12-23T00:36:27.742Z,170.55
2022-12-23T00:39:14.818Z,167.70
2022-12-23T00:42:00.067Z,165.20
2022-12-23T00:44:26.980Z,159.75
2022-12-23T00:46:53.768Z,168.05
2022-12-23T00:49:40.191Z,164.50
2022-12-23T00:52:12.476Z,159.40
2022-12-23T00:54:39.365Z,159.85
2022-12-23T00:57:06.066Z,160.00
2022-12-23T00:59:33.666Z,157.80
2022-12-23T01:02:19.142Z,156.60
2022-12-23T01:05:04.458Z,163.18
2022-12-23T01:07:31.193Z,167.68
2022-12-23T01:09:58.036Z,164.43
2022-12-23T01:12:25.263Z,164.23
2022-12-23T01:14:52.083Z,165.02
2022-12-23T01:17:18.866Z,167.65
2022-12-23T01:19:45.705Z,163.23
2022-12-23T01:22:12.489Z,170.90
2022-12-23T01:24:39.323Z,161.93
2022-12-23T01:27:06.069Z,155.98
2022-12-23T01:29:32.935Z,166.40
2022-12-23T01:32:00.024Z,166.93
2022-12-23T01:34:32.581Z,160.48
2022-12-23T01:39:29.578Z,157.70
2022-12-23T01:42:14.845Z,168.35
2022-12-23T01:45:04.141Z,161.10
2022-12-23T01:47:33.821Z,156.77
2022-12-23T01:50:09.668Z,159.60
2022-12-23T01:53:04.763Z,162.57
2022-12-23T01:55:59.232Z,160.23
2022-12-23T01:58:34.334Z,156.10
2022-12-23T02:01:20.409Z,162.45
2022-12-23T02:03:50.602Z,163.15
2022-12-23T02:06:46.175Z,163.07
2022-12-23T02:09:43.240Z,158.35
2022-12-23T02:12:12.910Z,154.73
2022-12-23T02:15:07.511Z,159.85
2022-12-23T02:18:08.381Z,163.15
2022-12-23T02:20:56.909Z,165.73
2022-12-23T02:23:45.641Z,154.70
2022-12-23T02:26:30.541Z,158.25
2022-12-23T02:29:19.048Z,163.40
2022-12-23T02:32:01.147Z,155.07
2022-12-23T02:34:46.615Z,163.82
2022-12-23T02:37:29.297Z,161.98
2022-12-23T02:40:07.038Z,157.13
2022-12-23T02:42:38.795Z,166.05
2022-12-23T02:45:17.176Z,167.57
2022-12-23T02:47:50.646Z,159.25
2022-12-23T02:50:26.441Z,163.63
2022-12-23T02:52:58.755Z,163.68
2022-12-23T02:55:33.753Z,157.70
2022-12-23T02:58:05.421Z,167.77
2022-12-23T03:00:33.033Z,166.70
2022-12-23T03:03:00.185Z,156.43
2022-12-23T03:05:39.177Z,163.77
2022-12-23T03:08:12.331Z,159.35
2022-12-23T03:10:57.276Z,165.73
2022-12-23T03:13:39.859Z,149.90
2022-12-23T03:16:15.675Z,165.15
2022-12-23T03:19:00.751Z,153.85
2022-12-23T03:21:45.047Z,161.68
2022-12-23T03:24:37.405Z,166.25
2022-12-23T03:27:10.259Z,161.55
2022-12-23T03:29:44.223Z,158.38
2022-12-23T03:32:13.922Z,163.43
2022-12-23T03:34:46.658Z,161.98
2022-12-23T03:37:16.027Z,156.13
2022-12-23T03:40:12.172Z,157.18
2022-12-23T03:42:41.854Z,157.43
2022-12-23T03:45:38.070Z,165.32
2022-12-23T03:48:11.889Z,156.35
2022-12-23T03:50:43.035Z,156.27
2022-12-23T03:53:18.717Z,166.82
2022-12-23T03:56:08.164Z,170.50
2022-12-23T03:58:41.782Z,154.27
2022-12-23T04:01:18.191Z,153.07
2022-12-23T04:04:07.008Z,158.45
2022-12-23T04:06:52.019Z,162.35
2022-12-23T04:09:22.363Z,159.48
2022-12-23T04:11:50.349Z,162.82
2022-12-23T04:14:22.146Z,152.63
2022-12-23T04:16:54.332Z,163.23
2022-12-23T04:19:21.118Z,154.18
2022-12-23T04:21:47.963Z,158.48
2022-12-23T04:24:14.714Z,154.98
2022-12-23T04:26:41.450Z,154.95
2022-12-23T04:29:08.480Z,150.57
2022-12-23T04:31:38.247Z,150.10
2022-12-23T04:34:05.076Z,145.18
2022-12-23T04:36:31.862Z,160.68
2022-12-23T04:38:58.669Z,170.85
2022-12-23T04:41:25.405Z,161.98
2022-12-23T04:43:53.219Z,170.40
2022-12-23T04:46:20.384Z,164.73
2022-12-23T04:48:47.208Z,152.20
2022-12-23T04:51:14.002Z,168.73
2022-12-23T04:53:40.757Z,157.48
2022-12-23T04:56:08.894Z,167.60
2022-12-23T04:58:35.573Z,165.57
2022-12-23T05:01:05.535Z,164.90
2022-12-23T05:03:33.089Z,155.40
2022-12-23T05:06:00.342Z,162.73
2022-12-23T05:08:27.350Z,153.13
2022-12-23T05:10:54.382Z,163.85
2022-12-23T05:13:21.438Z,156.88
2022-12-23T05:15:53.224Z,158.93
2022-12-23T05:18:21.494Z,169.68
2022-12-23T05:20:49.783Z,159.48
2022-12-23T05:23:16.619Z,169.02
2022-12-23T05:25:43.432Z,175.75
2022-12-23T05:28:10.740Z,165.23
2022-12-23T05:30:37.468Z,171.40
2022-12-23T05:33:04.338Z,174.05
2022-12-23T05:35:31.086Z,168.32
2022-12-23T05:37:58.520Z,176.70
2022-12-23T05:40:28.325Z,165.43
2022-12-23T05:42:56.405Z,165.57
2022-12-23T05:45:23.464Z,172.70
2022-12-23T05:47:50.177Z,166.70
2022-12-23T05:50:16.980Z,165.65
2022-12-23T05:52:43.768Z,173.38
2022-12-23T05:55:10.598Z,166.20
2022-12-23T05:57:37.440Z,168.55
2022-12-23T06:00:04.647Z,170.93
2022-12-23T06:02:39.254Z,159.68
2022-12-23T06:05:06.380Z,164.13
2022-12-23T06:07:33.401Z,161.77
2022-12-23T06:10:00.147Z,171.25
2022-12-23T06:12:26.892Z,174.68
2022-12-23T06:14:54.072Z,178.70
2022-12-23T06:17:21.185Z,167.95
2022-12-23T06:19:47.881Z,164.20
2022-12-23T06:22:15.516Z,163.60
2022-12-23T06:24:42.281Z,166.88
2022-12-23T06:27:09.050Z,159.77
2022-12-23T06:29:36.317Z,165.98
2022-12-23T06:32:03.298Z,164.43
2022-12-23T06:34:31.432Z,167.20
2022-12-23T06:36:58.565Z,167.63
2022-12-23T06:39:25.313Z,174.00
2022-12-23T06:41:52.176Z,172.93
2022-12-23T06:44:19.078Z,161.65
2022-12-23T06:46:45.853Z,188.43
2022-12-23T06:49:13.651Z,168.73
2022-12-23T06:51:41.631Z,180.70
2022-12-23T06:54:11.104Z,164.20
2022-12-23T06:56:37.915Z,166.88
2022-12-23T06:59:04.608Z,163.27
2022-12-23T07:01:31.505Z,168.65
2022-12-23T07:03:58.286Z,185.48
2022-12-23T07:06:25.145Z,173.98
2022-12-23T07:08:51.915Z,173.13
2022-12-23T07:11:18.653Z,172.68
2022-12-23T07:13:46.308Z,170.65
2022-12-23T07:16:13.300Z,222.38
2022-12-23T07:18:40.499Z,167.93
2022-12-23T07:21:15.541Z,159.57
2022-12-23T07:23:44.742Z,163.82
2022-12-23T07:26:11.485Z,161.98
2022-12-23T07:28:38.351Z,170.85
2022-12-23T07:31:08.227Z,164.13
2022-12-23T07:33:35.020Z,178.68
2022-12-23T07:36:01.728Z,173.85
2022-12-23T07:38:29.797Z,165.30
2022-12-23T07:40:56.565Z,166.10
2022-12-23T07:43:23.708Z,161.35
2022-12-23T07:45:57.320Z,174.60
2022-12-23T07:48:26.550Z,165.45
2022-12-23T07:50:53.359Z,166.70
2022-12-23T07:53:20.169Z,169.10
2022-12-23T07:55:51.546Z,164.80
2022-12-23T07:58:24.480Z,166.10
2022-12-23T08:00:51.512Z,171.75
2022-12-23T08:03:18.356Z,184.20
2022-12-23T08:05:45.288Z,184.63
2022-12-23T08:08:12.628Z,168.63
2022-12-23T08:10:47.750Z,174.48
2022-12-23T08:13:14.720Z,171.07
2022-12-23T08:15:41.584Z,185.15
2022-12-23T08:18:08.344Z,166.30
2022-12-23T08:20:35.074Z,170.60
2022-12-23T08:23:01.852Z,176.88
2022-12-23T08:25:28.640Z,169.90
2022-12-23T08:27:55.420Z,168.90
2022-12-23T08:30:22.212Z,166.60
2022-12-23T08:32:48.962Z,173.30
2022-12-23T08:35:15.849Z,179.45
2022-12-23T08:37:42.612Z,169.48
2022-12-23T08:40:09.780Z,172.10
2022-12-23T08:42:36.472Z,165.18
2022-12-23T08:45:03.459Z,175.98
2022-12-23T08:47:30.247Z,172.10
2022-12-23T08:49:57.013Z,176.10
2022-12-23T08:52:23.710Z,176.52
2022-12-23T08:54:50.464Z,173.40
2022-12-23T08:57:17.258Z,179.32
2022-12-23T08:59:44.153Z,175.23
2022-12-23T09:02:14.252Z,174.52
2022-12-23T09:04:41.393Z,168.60
2022-12-23T09:07:08.116Z,176.38
2022-12-23T09:09:35.024Z,173.90
2022-12-23T09:12:01.908Z,182.90
2022-12-23T09:14:29.008Z,181.82
2022-12-23T09:16:55.808Z,178.15
2022-12-23T09:19:22.513Z,173.95
2022-12-23T09:21:49.259Z,172.48
2022-12-23T09:24:16.068Z,175.52
2022-12-23T09:26:42.827Z,173.48
2022-12-23T09:29:09.546Z,174.30
2022-12-23T09:31:37.870Z,175.23
2022-12-23T09:34:05.376Z,170.38
2022-12-23T09:36:32.220Z,186.23
2022-12-23T09:38:59.516Z,182.52
2022-12-23T09:42:01.556Z,184.80
2022-12-23T09:45:13.150Z,172.85
2022-12-23T09:47:41.649Z,182.85
2022-12-23T09:50:29.287Z,176.15
2022-12-23T09:53:28.348Z,179.77
2022-12-23T09:56:12.220Z,182.98
2022-12-23T09:58:49.425Z,182.10
2022-12-23T10:01:32.690Z,175.50
2022-12-23T10:04:22.677Z,174.05
2022-12-23T10:07:28.961Z,173.25
2022-12-23T10:09:58.212Z,174.88
2022-12-23T10:12:44.761Z,186.60
2022-12-23T10:15:47.395Z,186.07
2022-12-23T10:18:51.270Z,171.68
2022-12-23T10:21:47.562Z,179.20
2022-12-23T10:24:26.322Z,182.73
2022-12-23T10:26:58.132Z,177.88
2022-12-23T10:29:30.089Z,185.48
2022-12-23T10:32:34.430Z,186.43
2022-12-23T10:35:18.081Z,183.45
2022-12-23T10:38:08.394Z,194.73
2022-12-23T10:40:45.479Z,190.20
2022-12-23T10:43:50.723Z,184.60
2022-12-23T10:46:50.864Z,188.20
2022-12-23T10:49:26.964Z,189.52
2022-12-23T10:51:59.511Z,179.15
2022-12-23T10:54:35.163Z,197.88
2022-12-23T10:57:04.456Z,189.85
2022-12-23T10:59:36.147Z,182.95
2022-12-23T11:02:33.566Z,189.50
2022-12-23T11:07:45.939Z,187.77
2022-12-23T11:10:19.444Z,186.15
2022-12-23T11:12:49.967Z,184.52
2022-12-23T11:15:33.213Z,193.20
2022-12-23T11:18:20.772Z,191.15
2022-12-23T11:21:14.562Z,188.13
2022-12-23T11:23:41.371Z,191.32
2022-12-23T11:26:11.820Z,191.48
2022-12-23T11:28:47.415Z,195.32
2022-12-23T11:31:17.030Z,192.00
2022-12-23T11:34:02.611Z,185.40
2022-12-23T11:36:31.348Z,190.13
2022-12-23T11:39:07.139Z,184.18
2022-12-23T11:41:40.476Z,183.02
2022-12-23T11:44:33.684Z,194.27
2022-12-23T11:47:22.197Z,188.50
2022-12-23T11:49:59.954Z,198.25
2022-12-23T11:52:31.928Z,191.68
2022-12-23T11:55:04.646Z,188.93
2022-12-23T11:57:49.062Z,195.18
2022-12-23T12:00:21.057Z,191.07
2022-12-23T12:02:53.063Z,196.13
2022-12-23T12:05:22.981Z,191.55
2022-12-23T12:07:52.273Z,199.77
2022-12-23T12:10:25.963Z,192.30
2022-12-23T12:12:57.029Z,190.77
2022-12-23T12:15:34.873Z,189.20
2022-12-23T12:18:04.075Z,202.18
2022-12-23T12:20:42.098Z,189.32
2022-12-23T12:23:20.845Z,191.77
2022-12-23T12:25:58.317Z,203.82
2022-12-23T12:28:43.185Z,192.85
2022-12-23T12:31:32.107Z,192.40
2022-12-23T12:34:23.860Z,193.77
2022-12-23T12:37:53.681Z,195.68
2022-12-23T12:40:34.291Z,189.68
2022-12-23T12:43:33.448Z,183.88
2022-12-23T12:46:06.615Z,193.73
2022-12-23T12:49:09.325Z,195.63
2022-12-23T12:52:08.004Z,200.57
2022-12-23T12:54:41.768Z,189.82
2022-12-23T12:57:15.177Z,188.57
2022-12-23T12:59:43.988Z,187.80
2022-12-23T13:02:34.778Z,188.85
2022-12-23T13:05:20.661Z,187.50
2022-12-23T13:08:14.854Z,196.85
2022-12-23T13:10:51.711Z,198.32
2022-12-23T13:13:21.379Z,186.25
2022-12-23T13:16:05.477Z,189.40
2022-12-23T13:18:52.092Z,186.05
2022-12-23T13:21:37.024Z,184.70
2022-12-23T13:24:28.706Z,188.23
2022-12-23T13:27:00.598Z,184.63
2022-12-23T13:29:57.954Z,180.88
2022-12-23T13:32:39.147Z,192.38
2022-12-23T13:35:08.865Z,187.65
2022-12-23T13:37:44.784Z,192.02
2022-12-23T13:40:43.911Z,184.57
2022-12-23T13:43:15.290Z,178.85
2022-12-23T13:45:43.919Z,199.93
2022-12-23T13:48:28.879Z,192.13
2022-12-23T13:51:37.215Z,189.70
2022-12-23T13:54:26.935Z,186.02
2022-12-23T13:57:08.520Z,188.05
2022-12-23T13:59:43.590Z,192.32
2022-12-23T14:02:35.138Z,197.90
2022-12-23T14:05:04.097Z,191.80
2022-12-23T14:07:33.462Z,198.60
2022-12-23T14:10:11.245Z,190.00
2022-12-23T14:12:42.572Z,203.20
2022-12-23T14:15:25.601Z,196.52
2022-12-23T14:18:13.793Z,203.00
2022-12-23T14:21:02.205Z,196.73
2022-12-23T14:23:40.654Z,190.25
2022-12-23T14:26:38.913Z,196.27
2022-12-23T14:29:47.868Z,195.20
2022-12-23T14:32:36.290Z,199.13
2022-12-23T14:35:16.434Z,188.05
2022-12-23T14:37:43.416Z,192.68
2022-12-23T14:40:37.843Z,191.23
2022-12-23T14:43:51.323Z,191.45
2022-12-23T14:46:36.451Z,187.65
2022-12-23T14:49:36.875Z,187.30
2022-12-23T14:51:51.156Z,185.02
2022-12-23T14:54:38.406Z,186.05
2022-12-23T14:57:19.242Z,188.68
2022-12-23T15:00:05.588Z,180.45
2022-12-23T15:02:37.009Z,183.90
2022-12-23T15:05:04.720Z,182.52
2022-12-23T15:07:38.271Z,185.70
2022-12-23T15:10:07.169Z,181.88
2022-12-23T15:12:36.103Z,182.07
2022-12-23T15:15:17.942Z,188.63
2022-12-23T15:17:44.960Z,190.35
2022-12-23T15:20:12.720Z,202.77
2022-12-23T15:22:42.697Z,193.95
2022-12-23T15:25:39.466Z,182.98
2022-12-23T15:28:15.264Z,200.23
2022-12-23T15:30:48.625Z,201.15
2022-12-23T15:34:01.003Z,193.50
2022-12-23T15:36:11.694Z,202.52
2022-12-23T15:38:39.593Z,203.95
2022-12-23T15:41:14.873Z,200.90
2022-12-23T15:43:43.039Z,199.65
2022-12-23T15:46:31.780Z,197.52
2022-12-23T15:48:58.627Z,191.32
2022-12-23T15:52:07.598Z,194.95
2022-12-23T15:54:29.356Z,205.65
2022-12-23T15:56:59.069Z,202.52
2022-12-23T15:59:31.349Z,199.70
2022-12-23T16:01:58.399Z,205.00
2022-12-23T16:04:27.723Z,204.40
2022-12-23T16:06:55.760Z,206.10
2022-12-23T16:09:36.390Z,210.57
2022-12-23T16:12:20.483Z,202.77
2022-12-23T16:15:00.950Z,202.65
2022-12-23T16:17:33.589Z,210.27
2022-12-23T16:20:24.781Z,207.05
2022-12-23T16:22:57.566Z,217.70
2022-12-23T16:25:31.794Z,216.50
2022-12-23T16:28:24.496Z,208.73
2022-12-23T16:30:57.104Z,200.23
2022-12-23T16:33:23.737Z,210.02
2022-12-23T16:35:51.091Z,214.90
2022-12-23T16:38:22.572Z,209.52
2022-12-23T16:40:54.583Z,213.07
2022-12-23T16:43:24.106Z,211.57
2022-12-23T16:45:54.426Z,217.13
2022-12-23T16:48:40.362Z,207.73
2022-12-23T16:51:14.756Z,207.97
2022-12-23T16:53:41.513Z,207.27
2022-12-23T16:56:20.503Z,207.57
2022-12-23T16:58:47.297Z,214.45
2022-12-23T17:01:21.985Z,218.40
2022-12-23T17:03:49.173Z,197.48
2022-12-23T17:06:17.685Z,202.95
2022-12-23T17:08:44.840Z,200.95
2022-12-23T17:11:16.981Z,199.05
2022-12-23T17:13:45.087Z,200.57
2022-12-23T17:16:22.293Z,198.40
2022-12-23T17:18:50.784Z,201.63
2022-12-23T17:21:24.131Z,204.90
2022-12-23T17:23:56.692Z,204.18
2022-12-23T17:26:23.445Z,213.40
2022-12-23T17:28:50.240Z,201.23
2022-12-23T17:31:26.679Z,222.82
2022-12-23T17:33:54.539Z,206.50
2022-12-23T17:36:21.948Z,214.77
2022-12-23T17:38:48.796Z,209.65
2022-12-23T17:41:30.956Z,208.13
2022-12-23T17:43:58.365Z,197.88
2022-12-23T17:46:26.745Z,200.30
2022-12-23T17:48:53.918Z,191.10
2022-12-23T17:51:22.512Z,197.73
2022-12-23T17:53:56.866Z,191.02
2022-12-23T17:56:26.429Z,203.00
2022-12-23T17:58:53.252Z,189.77
2022-12-23T18:01:26.197Z,189.52
2022-12-23T18:03:53.678Z,191.10
2022-12-23T18:06:22.088Z,192.63
2022-12-23T18:08:49.644Z,181.88
2022-12-23T18:11:39.070Z,194.68
2022-12-23T18:14:07.684Z,190.40
2022-12-23T18:16:34.484Z,177.52
2022-12-23T18:19:01.230Z,190.65
2022-12-23T18:21:29.208Z,193.60
2022-12-23T18:23:59.714Z,205.40
2022-12-23T18:26:26.801Z,196.60
2022-12-23T18:28:54.617Z,195.75
2022-12-23T18:31:24.297Z,197.75
2022-12-23T18:33:51.754Z,206.68
2022-12-23T18:36:28.475Z,193.45
2022-12-23T18:38:56.555Z,198.93
2022-12-23T18:41:24.837Z,201.27
2022-12-23T18:43:52.187Z,203.02
2022-12-23T18:46:22.331Z,187.80
2022-12-23T18:48:51.640Z,189.80
2022-12-23T18:51:22.206Z,193.07
2022-12-23T18:53:49.231Z,190.70
2022-12-23T18:56:19.293Z,199.90
2022-12-23T18:58:46.096Z,183.45
2022-12-23T19:01:14.636Z,191.88
2022-12-23T19:03:42.173Z,187.98
2022-12-23T19:06:11.907Z,179.65
2022-12-23T19:08:39.238Z,192.60
2022-12-23T19:11:15.210Z,184.02
2022-12-23T19:13:42.088Z,194.45
2022-12-23T19:16:13.690Z,195.82
2022-12-23T19:18:40.580Z,201.30
2022-12-23T19:21:07.325Z,194.57
2022-12-23T19:23:34.095Z,173.40
2022-12-23T19:26:01.030Z,176.00
2022-12-23T19:28:27.860Z,179.13
2022-12-23T19:30:54.701Z,180.75
2022-12-23T19:33:21.521Z,173.20
2022-12-23T19:35:48.356Z,181.00
2022-12-23T19:38:15.243Z,188.27
2022-12-23T19:40:41.992Z,181.38
2022-12-23T19:43:08.726Z,188.23
2022-12-23T19:45:35.486Z,188.30
2022-12-23T19:48:02.244Z,185.30
2022-12-23T19:50:31.619Z,186.88
2022-12-23T19:52:58.426Z,188.02
2022-12-23T19:55:25.162Z,175.13
2022-12-23T19:57:52.368Z,184.63
2022-12-23T20:00:19.237Z,185.95
2022-12-23T20:02:46.220Z,186.75
2022-12-23T20:05:13.194Z,176.48
2022-12-23T20:07:40.060Z,183.95
2022-12-23T20:10:07.485Z,173.68
2022-12-23T20:12:34.295Z,186.32
2022-12-23T20:15:01.068Z,183.20
2022-12-23T20:17:30.736Z,188.27
2022-12-23T20:19:57.520Z,190.75
2022-12-23T20:22:24.287Z,197.13
2022-12-23T20:24:51.068Z,193.25
2022-12-23T20:27:22.629Z,192.93
2022-12-23T20:29:52.897Z,190.32
2022-12-23T20:32:19.626Z,182.73
2022-12-23T20:34:46.489Z,187.02
2022-12-23T20:37:14.149Z,186.02
2022-12-23T20:39:40.885Z,192.25
2022-12-23T20:42:08.669Z,185.27
2022-12-23T20:44:36.886Z,179.02
2022-12-23T20:47:06.180Z,181.20
2022-12-23T20:49:33.567Z,184.43
2022-12-23T20:52:00.410Z,192.30
2022-12-23T20:54:32.561Z,189.20
2022-12-23T20:57:00.841Z,191.48
2022-12-23T20:59:27.738Z,182.30
2022-12-23T21:01:54.960Z,185.18
2022-12-23T21:04:22.661Z,190.52
2022-12-23T21:06:49.674Z,190.85
2022-12-23T21:09:16.868Z,176.35
2022-12-23T21:11:45.505Z,180.45
2022-12-23T21:14:13.023Z,185.23
2022-12-23T21:16:40.493Z,204.45
2022-12-23T21:19:15.543Z,195.60
2022-12-23T21:21:42.446Z,202.75
2022-12-23T21:24:09.829Z,195.40
2022-12-23T21:26:36.996Z,192.07
2022-12-23T21:29:06.503Z,195.80
2022-12-23T21:31:36.025Z,197.88
2022-12-23T21:34:03.395Z,192.27
2022-12-23T21:36:32.463Z,196.27
2022-12-23T21:39:00.213Z,189.13
2022-12-23T21:41:31.769Z,190.20
2022-12-23T21:44:00.171Z,193.80
2022-12-23T21:46:28.150Z,195.52
2022-12-23T21:48:58.946Z,188.65
2022-12-23T21:51:41.904Z,198.00
2022-12-23T21:54:12.490Z,205.65
2022-12-23T21:56:40.399Z,222.48
2022-12-23T21:59:11.392Z,206.90
2022-12-23T22:01:38.482Z,210.30
2022-12-23T22:04:05.570Z,214.30
2022-12-23T22:06:37.969Z,195.15
2022-12-23T22:09:06.343Z,195.98
2022-12-23T22:11:35.275Z,185.18
2022-12-23T22:14:03.640Z,193.07
2022-12-23T22:16:31.576Z,207.40
2022-12-23T22:19:00.555Z,196.13
2022-12-23T22:21:30.367Z,193.27
2022-12-23T22:23:57.917Z,208.00
2022-12-23T22:26:26.975Z,186.55
2022-12-23T22:28:59.277Z,196.93
2022-12-23T22:31:38.346Z,192.05
2022-12-23T22:34:06.269Z,183.23
2022-12-23T22:36:33.791Z,180.35
2022-12-23T22:39:01.833Z,164.63
2022-12-23T22:41:30.171Z,187.48
2022-12-23T22:43:58.030Z,169.77
2022-12-23T22:46:25.642Z,168.60
2022-12-23T22:48:53.233Z,168.55
2022-12-23T22:51:26.039Z,178.43
2022-12-23T22:53:53.505Z,173.05
2022-12-23T22:56:21.628Z,170.70
2022-12-23T22:58:49.499Z,172.00
2022-12-23T23:01:28.669Z,164.30
2022-12-23T23:03:57.638Z,164.57
2022-12-23T23:06:33.599Z,168.98
2022-12-23T23:09:01.425Z,179.70
2022-12-23T23:11:29.210Z,168.77
2022-12-23T23:13:56.476Z,163.18
2022-12-23T23:16:24.536Z,160.95
2022-12-23T23:18:52.761Z,165.52
2022-12-23T23:21:20.112Z,172.75
2022-12-23T23:23:46.976Z,166.60
2022-12-23T23:26:14.104Z,168.77
2022-12-23T23:28:42.290Z,165.40
2022-12-23T23:33:57.982Z,167.07
2022-12-23T23:36:25.402Z,158.40
2022-12-23T23:38:52.185Z,157.85
2022-12-23T23:41:22.778Z,164.30
2022-12-23T23:43:50.958Z,155.40
2022-12-23T23:46:17.869Z,152.95
2022-12-23T23:48:44.636Z,151.43
2022-12-23T23:51:12.505Z,158.13
2022-12-23T23:53:39.311Z,155.63
2022-12-23T23:56:07.628Z,156.07
2022-12-23T23:58:35.396Z,155.43
